KLDJ

Linden Airport

Linden, New Jersey, USA
METAR KLDJ 230915Z AUTO 00000KT 10SM OVC080 08/05 A3010 RMK AO2 T00750045
Observed Flight Rules
Oct-23 @ 09:15 UTC (24 minutes ago) Visual Flight Rules
Visibility Clouds
10 miles
  • Overcast at 8,000' AGL
Temperatures Readings
Current 8°C / 46°F
Dewpoint 5°C / 41°F
Humidity 82%
Altimeter 30.1" Hg
Pressure 1019 hPa
Elevation 7
METAR KLDJ 230915Z AUTO 00000KT 10SM OVC080 08/05 A3010 RMK AO2 T00750045
Observed Flight Rules
Oct-23 @ 09:15 UTC
(24 minutes ago)
VFR
Clouds
  • Overcast at 8,000' AGL
Temperature Dewpoint
8°C / 46°F 5°C / 41°F
Humidity Altimeter Pressure
82% 30.1" Hg 1019 hPa